sensor_id;sensor_type;location;lat;lon;timestamp;pressure;altitude;pressure_sealevel;temperature;humidity
66627;BME280;53498;50.422;14.912;2023-05-24T00:00:14;99097.38;;;11.73;100.00
66627;BME280;53498;50.422;14.912;2023-05-24T00:03:00;99100.81;;;11.76;100.00
66627;BME280;53498;50.422;14.912;2023-05-24T00:05:29;99106.09;;;11.63;100.00
66627;BME280;53498;50.422;14.912;2023-05-24T00:07:56;99100.03;;;11.50;100.00
66627;BME280;53498;50.422;14.912;2023-05-24T00:10:21;99101.78;;;11.52;100.00
66627;BME280;53498;50.422;14.912;2023-05-24T00:12:47;99106.16;;;11.44;100.00
66627;BME280;53498;50.422;14.912;2023-05-24T00:15:12;99100.06;;;11.45;100.00
66627;BME280;53498;50.422;14.912;2023-05-24T00:17:38;99095.75;;;11.44;100.00
66627;BME280;53498;50.422;14.912;2023-05-24T00:20:10;99100.13;;;11.34;100.00
66627;BME280;53498;50.422;14.912;2023-05-24T00:22:37;99102.72;;;11.34;100.00
66627;BME280;53498;50.422;14.912;2023-05-24T00:25:03;99100.09;;;11.41;100.00
66627;BME280;53498;50.422;14.912;2023-05-24T00:27:29;99101.81;;;11.45;100.00
66627;BME280;53498;50.422;14.912;2023-05-24T00:29:56;99107.03;;;11.39;100.00
66627;BME280;53498;50.422;14.912;2023-05-24T00:32:21;99092.31;;;11.34;100.00
66627;BME280;53498;50.422;14.912;2023-05-24T00:34:47;99106.19;;;11.30;100.00
66627;BME280;53498;50.422;14.912;2023-05-24T00:37:13;99100.13;;;11.27;100.00
66627;BME280;53498;50.422;14.912;2023-05-24T00:39:39;99096.66;;;11.20;100.00
66627;BME280;53498;50.422;14.912;2023-05-24T00:42:06;99108.81;;;11.15;100.00
66627;BME280;53498;50.422;14.912;2023-05-24T00:44:31;99108.81;;;11.21;100.00
66627;BME280;53498;50.422;14.912;2023-05-24T00:46:57;99120.97;;;11.22;100.00
66627;BME280;53498;50.422;14.912;2023-05-24T00:49:26;99120.97;;;11.13;100.00
66627;BME280;53498;50.422;14.912;2023-05-24T00:51:52;99112.31;;;11.08;100.00
66627;BME280;53498;50.422;14.912;2023-05-24T00:54:19;99118.38;;;11.08;100.00
66627;BME280;53498;50.422;14.912;2023-05-24T00:56:46;99119.25;;;11.03;100.00
66627;BME280;53498;50.422;14.912;2023-05-24T00:59:12;99117.53;;;10.93;100.00
66627;BME280;53498;50.422;14.912;2023-05-24T01:01:39;99125.34;;;11.03;100.00
66627;BME280;53498;50.422;14.912;2023-05-24T01:04:06;99121.84;;;10.95;100.00
66627;BME280;53498;50.422;14.912;2023-05-24T01:06:53;99122.75;;;10.94;100.00
66627;BME280;53498;50.422;14.912;2023-05-24T01:12:32;99129.69;;;10.84;100.00
66627;BME280;53498;50.422;14.912;2023-05-24T01:15:03;99130.53;;;10.80;100.00
66627;BME280;53498;50.422;14.912;2023-05-24T01:17:42;99120.13;;;10.88;100.00
66627;BME280;53498;50.422;14.912;2023-05-24T01:20:12;99121.88;;;10.92;100.00
66627;BME280;53498;50.422;14.912;2023-05-24T01:25:44;99134.91;;;10.84;100.00
66627;BME280;53498;50.422;14.912;2023-05-24T01:28:11;99131.41;;;10.85;100.00
66627;BME280;53498;50.422;14.912;2023-05-24T01:30:39;99134.00;;;10.92;100.00
66627;BME280;53498;50.422;14.912;2023-05-24T01:33:06;99140.09;;;10.91;100.00
66627;BME280;53498;50.422;14.912;2023-05-24T01:35:32;99146.16;;;10.99;100.00
66627;BME280;53498;50.422;14.912;2023-05-24T01:38:07;99138.34;;;10.99;100.00
66627;BME280;53498;50.422;14.912;2023-05-24T01:40:35;99135.75;;;10.93;100.00
66627;BME280;53498;50.422;14.912;2023-05-24T01:43:28;99143.53;;;10.86;100.00
66627;BME280;53498;50.422;14.912;2023-05-24T01:46:08;99144.41;;;10.90;99.81
66627;BME280;53498;50.422;14.912;2023-05-24T01:51:50;99149.63;;;10.92;99.21
66627;BME280;53498;50.422;14.912;2023-05-24T01:54:20;99152.22;;;10.87;98.84
66627;BME280;53498;50.422;14.912;2023-05-24T01:56:47;99148.75;;;10.89;99.84
66627;BME280;53498;50.422;14.912;2023-05-24T01:59:14;99152.22;;;10.95;99.59
66627;BME280;53498;50.422;14.912;2023-05-24T02:01:40;99153.97;;;10.93;100.00
66627;BME280;53498;50.422;14.912;2023-05-24T02:04:06;99147.88;;;11.03;100.00
66627;BME280;53498;50.422;14.912;2023-05-24T02:06:31;99147.88;;;11.00;99.78
66627;BME280;53498;50.422;14.912;2023-05-24T02:08:57;99157.44;;;10.95;98.95
66627;BME280;53498;50.422;14.912;2023-05-24T02:11:22;99158.28;;;11.00;98.72
66627;BME280;53498;50.422;14.912;2023-05-24T02:13:48;99158.28;;;11.00;99.04
66627;BME280;53498;50.422;14.912;2023-05-24T02:16:14;99163.50;;;10.98;98.33
66627;BME280;53498;50.422;14.912;2023-05-24T02:18:40;99159.16;;;10.99;98.75
66627;BME280;53498;50.422;14.912;2023-05-24T02:21:09;99155.69;;;11.12;98.94
66627;BME280;53498;50.422;14.912;2023-05-24T02:23:35;99153.94;;;11.14;97.12
66627;BME280;53498;50.422;14.912;2023-05-24T02:26:00;99162.66;;;11.01;96.94
66627;BME280;53498;50.422;14.912;2023-05-24T02:28:26;99162.63;;;11.05;97.42
66627;BME280;53498;50.422;14.912;2023-05-24T02:30:52;99157.41;;;11.05;97.33
66627;BME280;53498;50.422;14.912;2023-05-24T02:33:18;99161.75;;;10.96;96.57
66627;BME280;53498;50.422;14.912;2023-05-24T02:35:43;99169.56;;;11.02;97.05
66627;BME280;53498;50.422;14.912;2023-05-24T02:38:09;99162.63;;;10.85;95.49
66627;BME280;53498;50.422;14.912;2023-05-24T02:40:34;99160.91;;;10.75;96.93
66627;BME280;53498;50.422;14.912;2023-05-24T02:43:00;99152.22;;;10.79;97.02
66627;BME280;53498;50.422;14.912;2023-05-24T02:45:25;99162.63;;;10.64;95.96
66627;BME280;53498;50.422;14.912;2023-05-24T02:47:51;99160.03;;;10.65;96.34
66627;BME280;53498;50.422;14.912;2023-05-24T02:50:16;99160.91;;;10.66;96.06
66627;BME280;53498;50.422;14.912;2023-05-24T02:52:42;99159.13;;;10.62;96.08
66627;BME280;53498;50.422;14.912;2023-05-24T02:55:08;99166.94;;;10.68;96.41
66627;BME280;53498;50.422;14.912;2023-05-24T02:57:34;99162.63;;;10.64;95.55
66627;BME280;53498;50.422;14.912;2023-05-24T02:59:59;99162.63;;;10.61;95.79
66627;BME280;53498;50.422;14.912;2023-05-24T03:02:25;99163.47;;;10.48;95.20
66627;BME280;53498;50.422;14.912;2023-05-24T03:04:52;99161.72;;;10.53;95.26
66627;BME280;53498;50.422;14.912;2023-05-24T03:07:18;99164.31;;;10.40;95.17
66627;BME280;53498;50.422;14.912;2023-05-24T03:09:44;99167.78;;;10.46;94.36
66627;BME280;53498;50.422;14.912;2023-05-24T03:12:09;99173.84;;;10.43;94.43
66627;BME280;53498;50.422;14.912;2023-05-24T03:14:35;99166.91;;;10.36;93.85
66627;BME280;53498;50.422;14.912;2023-05-24T03:17:01;99162.53;;;10.30;93.76
66627;BME280;53498;50.422;14.912;2023-05-24T03:19:26;99168.63;;;10.40;94.22
66627;BME280;53498;50.422;14.912;2023-05-24T03:21:52;99175.53;;;10.27;94.38
66627;BME280;53498;50.422;14.912;2023-05-24T03:24:17;99166.03;;;10.32;94.82
66627;BME280;53498;50.422;14.912;2023-05-24T03:26:43;99172.13;;;10.40;95.03
66627;BME280;53498;50.422;14.912;2023-05-24T03:29:09;99174.72;;;10.40;92.89
66627;BME280;53498;50.422;14.912;2023-05-24T03:31:35;99183.38;;;10.42;92.44
66627;BME280;53498;50.422;14.912;2023-05-24T03:34:00;99191.16;;;10.32;92.20
66627;BME280;53498;50.422;14.912;2023-05-24T03:36:26;99189.41;;;10.34;92.41
66627;BME280;53498;50.422;14.912;2023-05-24T03:38:54;99192.06;;;10.45;92.18
66627;BME280;53498;50.422;14.912;2023-05-24T03:41:19;99192.06;;;10.38;91.33
66627;BME280;53498;50.422;14.912;2023-05-24T03:43:45;99192.06;;;10.41;92.84
66627;BME280;53498;50.422;14.912;2023-05-24T03:46:10;99199.75;;;10.25;90.89
66627;BME280;53498;50.422;14.912;2023-05-24T03:48:36;99206.75;;;10.30;92.36
66627;BME280;53498;50.422;14.912;2023-05-24T03:51:02;99211.97;;;10.32;90.86
66627;BME280;53498;50.422;14.912;2023-05-24T03:53:28;99209.34;;;10.33;90.74
66627;BME280;53498;50.422;14.912;2023-05-24T03:55:54;99220.69;;;10.45;89.87
66627;BME280;53498;50.422;14.912;2023-05-24T03:58:19;99220.69;;;10.52;90.06
66627;BME280;53498;50.422;14.912;2023-05-24T04:00:46;99215.50;;;10.55;88.97
66627;BME280;53498;50.422;14.912;2023-05-24T04:03:11;99216.34;;;10.53;88.49
66627;BME280;53498;50.422;14.912;2023-05-24T04:05:38;99218.94;;;10.37;88.58
66627;BME280;53498;50.422;14.912;2023-05-24T04:08:04;99216.25;;;10.22;88.93
66627;BME280;53498;50.422;14.912;2023-05-24T04:10:29;99211.03;;;10.22;89.84
66627;BME280;53498;50.422;14.912;2023-05-24T04:12:55;99217.16;;;10.30;89.72
66627;BME280;53498;50.422;14.912;2023-05-24T04:15:22;99218.03;;;10.32;88.82
66627;BME280;53498;50.422;14.912;2023-05-24T04:17:48;99214.47;;;10.21;89.16
66627;BME280;53498;50.422;14.912;2023-05-24T04:20:20;99218.81;;;10.24;89.50
66627;BME280;53498;50.422;14.912;2023-05-24T04:22:50;99214.53;;;10.27;90.75
66627;BME280;53498;50.422;14.912;2023-05-24T04:25:16;99224.13;;;10.42;88.86
66627;BME280;53498;50.422;14.912;2023-05-24T04:27:41;99225.84;;;10.40;88.81
66627;BME280;53498;50.422;14.912;2023-05-24T04:30:07;99229.31;;;10.36;89.31
66627;BME280;53498;50.422;14.912;2023-05-24T04:32:33;99235.31;;;10.26;88.78
66627;BME280;53498;50.422;14.912;2023-05-24T04:35:00;99241.34;;;10.25;89.53
66627;BME280;53498;50.422;14.912;2023-05-24T04:37:27;99239.59;;;10.13;89.58
66627;BME280;53498;50.422;14.912;2023-05-24T04:39:54;99241.34;;;10.17;89.71
66627;BME280;53498;50.422;14.912;2023-05-24T04:42:20;99239.69;;;10.27;88.88
66627;BME280;53498;50.422;14.912;2023-05-24T04:44:45;99233.56;;;10.20;88.26
66627;BME280;53498;50.422;14.912;2023-05-24T04:47:11;99241.44;;;10.32;87.82
66627;BME280;53498;50.422;14.912;2023-05-24T04:49:37;99243.19;;;10.42;87.03
66627;BME280;53498;50.422;14.912;2023-05-24T04:52:04;99248.41;;;10.46;88.81
66627;BME280;53498;50.422;14.912;2023-05-24T04:54:29;99251.06;;;10.58;86.99
66627;BME280;53498;50.422;14.912;2023-05-24T04:56:55;99255.41;;;10.71;87.17
66627;BME280;53498;50.422;14.912;2023-05-24T04:59:20;99251.13;;;10.88;86.16
66627;BME280;53498;50.422;14.912;2023-05-24T05:01:46;99258.94;;;10.88;86.49
66627;BME280;53498;50.422;14.912;2023-05-24T05:04:12;99263.28;;;10.96;85.52
66627;BME280;53498;50.422;14.912;2023-05-24T05:06:38;99266.78;;;11.10;85.16
66627;BME280;53498;50.422;14.912;2023-05-24T05:09:08;99267.66;;;11.23;84.70
66627;BME280;53498;50.422;14.912;2023-05-24T05:11:35;99266.78;;;11.19;85.45
66627;BME280;53498;50.422;14.912;2023-05-24T05:14:01;99269.38;;;11.08;85.39
66627;BME280;53498;50.422;14.912;2023-05-24T05:16:27;99266.72;;;10.82;85.44
66627;BME280;53498;50.422;14.912;2023-05-24T05:18:52;99272.78;;;10.69;87.40
66627;BME280;53498;50.422;14.912;2023-05-24T05:21:18;99267.53;;;10.54;87.58
66627;BME280;53498;50.422;14.912;2023-05-24T05:23:44;99267.56;;;10.68;88.95
66627;BME280;53498;50.422;14.912;2023-05-24T05:26:10;99259.72;;;10.51;88.75
66627;BME280;53498;50.422;14.912;2023-05-24T05:28:36;99270.19;;;10.72;89.11
66627;BME280;53498;50.422;14.912;2023-05-24T05:31:02;99277.94;;;10.58;88.83
66627;BME280;53498;50.422;14.912;2023-05-24T05:33:30;99269.28;;;10.70;87.37
66627;BME280;53498;50.422;14.912;2023-05-24T05:35:56;99271.91;;;10.76;86.45
66627;BME280;53498;50.422;14.912;2023-05-24T05:38:37;99273.59;;;10.62;87.06
66627;BME280;53498;50.422;14.912;2023-05-24T05:41:02;99277.97;;;10.74;86.38
66627;BME280;53498;50.422;14.912;2023-05-24T05:43:28;99278.00;;;10.72;85.87
66627;BME280;53498;50.422;14.912;2023-05-24T05:45:55;99278.88;;;10.82;85.28
66627;BME280;53498;50.422;14.912;2023-05-24T05:48:21;99282.31;;;10.81;86.20
66627;BME280;53498;50.422;14.912;2023-05-24T05:50:46;99289.28;;;10.79;84.70
66627;BME280;53498;50.422;14.912;2023-05-24T05:53:12;99283.13;;;10.61;84.48
66627;BME280;53498;50.422;14.912;2023-05-24T05:55:37;99292.69;;;10.64;84.21
66627;BME280;53498;50.422;14.912;2023-05-24T05:58:03;99288.41;;;10.80;84.27
66627;BME280;53498;50.422;14.912;2023-05-24T06:00:28;99295.38;;;10.88;83.21
66627;BME280;53498;50.422;14.912;2023-05-24T06:02:54;99297.09;;;10.93;82.34
66627;BME280;53498;50.422;14.912;2023-05-24T06:05:20;99277.03;;;10.52;84.50
66627;BME280;53498;50.422;14.912;2023-05-24T06:07:45;99283.06;;;10.41;84.22
66627;BME280;53498;50.422;14.912;2023-05-24T06:10:12;99286.59;;;10.54;85.60
66627;BME280;53498;50.422;14.912;2023-05-24T06:12:37;99285.84;;;10.91;84.04
66627;BME280;53498;50.422;14.912;2023-05-24T06:15:06;99292.75;;;10.93;82.00
66627;BME280;53498;50.422;14.912;2023-05-24T06:17:33;99298.06;;;11.38;79.93
66627;BME280;53498;50.422;14.912;2023-05-24T06:19:59;99300.66;;;11.54;79.85
66627;BME280;53498;50.422;14.912;2023-05-24T06:22:25;99299.78;;;11.45;78.44
66627;BME280;53498;50.422;14.912;2023-05-24T06:24:53;99301.50;;;11.17;80.63
66627;BME280;53498;50.422;14.912;2023-05-24T06:27:19;99301.50;;;11.14;81.05
66627;BME280;53498;50.422;14.912;2023-05-24T06:29:45;99309.31;;;11.26;79.58
66627;BME280;53498;50.422;14.912;2023-05-24T06:32:11;99307.56;;;11.08;79.62
66627;BME280;53498;50.422;14.912;2023-05-24T06:34:36;99314.50;;;11.07;80.65
66627;BME280;53498;50.422;14.912;2023-05-24T06:37:02;99321.41;;;11.02;79.81
66627;BME280;53498;50.422;14.912;2023-05-24T06:39:28;99318.75;;;10.79;80.13
66627;BME280;53498;50.422;14.912;2023-05-24T06:41:54;99318.72;;;10.67;80.41
66627;BME280;53498;50.422;14.912;2023-05-24T06:44:20;99316.00;;;10.42;82.45
66627;BME280;53498;50.422;14.912;2023-05-24T06:46:47;99327.38;;;10.60;82.23
66627;BME280;53498;50.422;14.912;2023-05-24T06:49:13;99331.72;;;10.67;82.43
66627;BME280;53498;50.422;14.912;2023-05-24T06:51:39;99323.94;;;10.75;80.85
66627;BME280;53498;50.422;14.912;2023-05-24T06:54:04;99329.22;;;10.95;80.19
66627;BME280;53498;50.422;14.912;2023-05-24T06:56:30;99324.03;;;11.07;80.01
66627;BME280;53498;50.422;14.912;2023-05-24T06:58:55;99323.16;;;11.00;79.19
66627;BME280;53498;50.422;14.912;2023-05-24T07:01:21;99323.19;;;11.03;79.21
66627;BME280;53498;50.422;14.912;2023-05-24T07:03:47;99320.53;;;10.88;79.58
66627;BME280;53498;50.422;14.912;2023-05-24T07:06:14;99324.97;;;11.53;79.24
66627;BME280;53498;50.422;14.912;2023-05-24T07:08:40;99340.59;;;11.55;76.57
66627;BME280;53498;50.422;14.912;2023-05-24T07:11:09;99334.50;;;11.74;76.54
66627;BME280;53498;50.422;14.912;2023-05-24T07:13:40;99332.78;;;11.76;75.93
66627;BME280;53498;50.422;14.912;2023-05-24T07:16:06;99333.63;;;12.20;75.26
66627;BME280;53498;50.422;14.912;2023-05-24T07:18:31;99326.56;;;12.46;75.59
66627;BME280;53498;50.422;14.912;2023-05-24T07:20:57;99336.28;;;11.88;70.78
66627;BME280;53498;50.422;14.912;2023-05-24T07:23:24;99331.91;;;11.53;73.26
66627;BME280;53498;50.422;14.912;2023-05-24T07:25:49;99332.72;;;11.15;73.53
66627;BME280;53498;50.422;14.912;2023-05-24T07:28:15;99342.31;;;11.47;72.39
66627;BME280;53498;50.422;14.912;2023-05-24T07:30:45;99336.25;;;11.35;73.79
66627;BME280;53498;50.422;14.912;2023-05-24T07:33:11;99331.91;;;11.84;74.88
66627;BME280;53498;50.422;14.912;2023-05-24T07:35:37;99339.63;;;12.40;71.83
66627;BME280;53498;50.422;14.912;2023-05-24T07:38:03;99338.81;;;12.35;70.26
66627;BME280;53498;50.422;14.912;2023-05-24T07:40:29;99336.19;;;12.27;70.28
66627;BME280;53498;50.422;14.912;2023-05-24T07:42:55;99330.03;;;12.52;70.85
66627;BME280;53498;50.422;14.912;2023-05-24T07:45:21;99331.59;;;12.88;70.13
66627;BME280;53498;50.422;14.912;2023-05-24T07:47:47;99332.53;;;12.78;66.51
66627;BME280;53498;50.422;14.912;2023-05-24T07:50:12;99328.19;;;12.78;67.23
66627;BME280;53498;50.422;14.912;2023-05-24T07:52:38;99329.13;;;12.63;65.20
66627;BME280;53498;50.422;14.912;2023-05-24T07:55:04;99335.25;;;12.52;63.34
66627;BME280;53498;50.422;14.912;2023-05-24T07:57:30;99327.38;;;12.62;64.71
66627;BME280;53498;50.422;14.912;2023-05-24T07:59:56;99324.81;;;12.53;64.69
66627;BME280;53498;50.422;14.912;2023-05-24T08:02:21;99325.47;;;13.01;65.78
66627;BME280;53498;50.422;14.912;2023-05-24T08:04:47;99327.25;;;12.94;65.68
66627;BME280;53498;50.422;14.912;2023-05-24T08:07:12;99336.69;;;13.14;62.50
66627;BME280;53498;50.422;14.912;2023-05-24T08:09:39;99335.97;;;12.92;61.02
66627;BME280;53498;50.422;14.912;2023-05-24T08:12:06;99332.91;;;13.61;62.04
66627;BME280;53498;50.422;14.912;2023-05-24T08:14:32;99342.31;;;13.82;58.63
66627;BME280;53498;50.422;14.912;2023-05-24T08:16:57;99341.03;;;13.19;59.75
66627;BME280;53498;50.422;14.912;2023-05-24T08:19:28;99329.84;;;12.96;61.04
66627;BME280;53498;50.422;14.912;2023-05-24T08:21:59;99332.66;;;12.44;61.38
66627;BME280;53498;50.422;14.912;2023-05-24T08:24:30;99337.06;;;12.36;62.30
66627;BME280;53498;50.422;14.912;2023-05-24T08:26:56;99334.03;;;13.22;65.64
66627;BME280;53498;50.422;14.912;2023-05-24T08:29:21;99339.91;;;13.56;60.47
66627;BME280;53498;50.422;14.912;2023-05-24T08:31:47;99329.59;;;13.42;60.95
66627;BME280;53498;50.422;14.912;2023-05-24T08:34:13;99330.53;;;13.32;61.43
66627;BME280;53498;50.422;14.912;2023-05-24T08:36:39;99334.81;;;13.42;60.67
66627;BME280;53498;50.422;14.912;2023-05-24T08:39:05;99344.50;;;13.25;62.42
66627;BME280;53498;50.422;14.912;2023-05-24T08:41:31;99352.06;;;13.63;59.36
66627;BME280;53498;50.422;14.912;2023-05-24T08:44:04;99335.84;;;13.10;60.69
66627;BME280;53498;50.422;14.912;2023-05-24T08:46:34;99345.34;;;13.30;61.99
66627;BME280;53498;50.422;14.912;2023-05-24T08:49:01;99336.63;;;13.29;61.13
66627;BME280;53498;50.422;14.912;2023-05-24T08:51:30;99344.16;;;13.71;62.13
66627;BME280;53498;50.422;14.912;2023-05-24T08:53:59;99345.66;;;13.99;62.73
66627;BME280;53498;50.422;14.912;2023-05-24T08:56:26;99345.25;;;13.45;57.35
66627;BME280;53498;50.422;14.912;2023-05-24T08:58:54;99341.00;;;13.29;58.95
66627;BME280;53498;50.422;14.912;2023-05-24T09:01:20;99344.22;;;13.60;60.41
66627;BME280;53498;50.422;14.912;2023-05-24T09:03:46;99357.13;;;13.83;57.64
66627;BME280;53498;50.422;14.912;2023-05-24T09:06:15;99345.31;;;14.33;59.76
66627;BME280;53498;50.422;14.912;2023-05-24T09:08:42;99352.09;;;14.52;58.00
66627;BME280;53498;50.422;14.912;2023-05-24T09:11:08;99347.75;;;14.54;55.26
66627;BME280;53498;50.422;14.912;2023-05-24T09:13:34;99352.28;;;15.07;57.41
66627;BME280;53498;50.422;14.912;2023-05-24T09:16:01;99352.09;;;14.52;57.15
66627;BME280;53498;50.422;14.912;2023-05-24T09:18:27;99339.34;;;14.96;55.48
66627;BME280;53498;50.422;14.912;2023-05-24T09:20:53;99351.25;;;15.20;58.98
66627;BME280;53498;50.422;14.912;2023-05-24T09:23:19;99349.56;;;15.75;57.81
66627;BME280;53498;50.422;14.912;2023-05-24T09:25:45;99352.00;;;15.30;56.16
66627;BME280;53498;50.422;14.912;2023-05-24T09:28:13;99354.16;;;15.59;54.90
66627;BME280;53498;50.422;14.912;2023-05-24T09:30:45;99360.22;;;15.00;52.46
66627;BME280;53498;50.422;14.912;2023-05-24T09:33:30;99354.63;;;14.60;56.09
66627;BME280;53498;50.422;14.912;2023-05-24T09:36:03;99341.50;;;14.63;56.28
66627;BME280;53498;50.422;14.912;2023-05-24T09:38:29;99343.00;;;14.84;56.67
66627;BME280;53498;50.422;14.912;2023-05-24T09:41:03;99346.75;;;15.28;56.64
66627;BME280;53498;50.422;14.912;2023-05-24T09:43:31;99348.00;;;15.02;55.24
66627;BME280;53498;50.422;14.912;2023-05-24T09:45:57;99352.00;;;14.60;56.47
66627;BME280;53498;50.422;14.912;2023-05-24T09:48:24;99358.38;;;15.09;55.11
66627;BME280;53498;50.422;14.912;2023-05-24T09:51:04;99349.06;;;14.07;55.34
66627;BME280;53498;50.422;14.912;2023-05-24T09:53:34;99351.44;;;14.30;54.95
66627;BME280;53498;50.422;14.912;2023-05-24T09:56:02;99356.47;;;14.52;55.79
66627;BME280;53498;50.422;14.912;2023-05-24T09:58:32;99356.72;;;15.04;54.82
66627;BME280;53498;50.422;14.912;2023-05-24T10:01:05;99351.19;;;14.56;55.31
66627;BME280;53498;50.422;14.912;2023-05-24T10:03:32;99355.03;;;14.99;55.64
66627;BME280;53498;50.422;14.912;2023-05-24T10:05:58;99352.03;;;15.84;55.48
66627;BME280;53498;50.422;14.912;2023-05-24T10:08:25;99353.88;;;14.49;54.93
66627;BME280;53498;50.422;14.912;2023-05-24T10:10:52;99356.78;;;14.23;56.47
66627;BME280;53498;50.422;14.912;2023-05-24T10:13:17;99355.41;;;14.70;54.67
66627;BME280;53498;50.422;14.912;2023-05-24T10:15:45;99345.22;;;15.13;55.99
66627;BME280;53498;50.422;14.912;2023-05-24T10:18:11;99361.88;;;15.09;54.09
66627;BME280;53498;50.422;14.912;2023-05-24T10:20:37;99352.53;;;14.90;53.25
66627;BME280;53498;50.422;14.912;2023-05-24T10:23:06;99359.94;;;14.55;55.13
66627;BME280;53498;50.422;14.912;2023-05-24T10:25:34;99349.34;;;14.65;54.14
66627;BME280;53498;50.422;14.912;2023-05-24T10:28:11;99356.66;;;15.08;54.76
66627;BME280;53498;50.422;14.912;2023-05-24T10:31:04;99357.44;;;15.13;53.59
66627;BME280;53498;50.422;14.912;2023-05-24T10:33:35;99362.78;;;15.07;55.06
66627;BME280;53498;50.422;14.912;2023-05-24T10:36:03;99373.81;;;14.62;52.54
66627;BME280;53498;50.422;14.912;2023-05-24T10:38:29;99354.97;;;14.29;53.78
66627;BME280;53498;50.422;14.912;2023-05-24T10:40:56;99351.91;;;14.71;53.69
66627;BME280;53498;50.422;14.912;2023-05-24T10:43:22;99352.91;;;15.25;52.22
66627;BME280;53498;50.422;14.912;2023-05-24T10:45:49;99354.91;;;15.07;51.58
66627;BME280;53498;50.422;14.912;2023-05-24T10:50:42;99356.78;;;14.98;52.18
66627;BME280;53498;50.422;14.912;2023-05-24T10:53:11;99362.34;;;15.37;53.28
66627;BME280;53498;50.422;14.912;2023-05-24T10:58:18;99364.75;;;15.53;50.76
66627;BME280;53498;50.422;14.912;2023-05-24T11:00:44;99356.59;;;15.14;53.82
66627;BME280;53498;50.422;14.912;2023-05-24T11:03:11;99348.66;;;15.77;54.37
66627;BME280;53498;50.422;14.912;2023-05-24T11:08:34;99354.56;;;15.90;54.77
66627;BME280;53498;50.422;14.912;2023-05-24T11:11:13;99361.03;;;15.66;53.28
66627;BME280;53498;50.422;14.912;2023-05-24T11:13:41;99362.78;;;15.68;52.06
66627;BME280;53498;50.422;14.912;2023-05-24T11:16:07;99360.00;;;15.78;53.83
66627;BME280;53498;50.422;14.912;2023-05-24T11:18:33;99365.50;;;16.15;51.57
66627;BME280;53498;50.422;14.912;2023-05-24T11:21:05;99365.09;;;16.36;51.18
66627;BME280;53498;50.422;14.912;2023-05-24T11:23:31;99359.44;;;15.56;51.61
66627;BME280;53498;50.422;14.912;2023-05-24T11:25:57;99352.88;;;15.86;52.32
66627;BME280;53498;50.422;14.912;2023-05-24T11:28:23;99359.53;;;15.49;51.27
66627;BME280;53498;50.422;14.912;2023-05-24T11:30:48;99349.22;;;15.96;53.16
66627;BME280;53498;50.422;14.912;2023-05-24T11:33:20;99357.28;;;15.84;52.59
66627;BME280;53498;50.422;14.912;2023-05-24T11:35:50;99356.38;;;15.26;52.17
66627;BME280;53498;50.422;14.912;2023-05-24T11:38:17;99361.88;;;15.69;51.32
66627;BME280;53498;50.422;14.912;2023-05-24T11:40:46;99361.53;;;15.91;53.62
66627;BME280;53498;50.422;14.912;2023-05-24T11:43:13;99357.94;;;15.95;51.74
66627;BME280;53498;50.422;14.912;2023-05-24T11:45:44;99366.44;;;16.11;51.91
66627;BME280;53498;50.422;14.912;2023-05-24T11:48:10;99368.53;;;15.90;52.08
66627;BME280;53498;50.422;14.912;2023-05-24T11:50:44;99373.28;;;16.19;51.78
66627;BME280;53498;50.422;14.912;2023-05-24T11:53:12;99369.22;;;16.02;51.45
66627;BME280;53498;50.422;14.912;2023-05-24T11:55:38;99362.94;;;16.10;52.75
66627;BME280;53498;50.422;14.912;2023-05-24T11:58:10;99364.03;;;16.45;50.68
66627;BME280;53498;50.422;14.912;2023-05-24T12:00:36;99373.22;;;16.23;52.85
66627;BME280;53498;50.422;14.912;2023-05-24T12:03:02;99365.00;;;16.42;50.68
66627;BME280;53498;50.422;14.912;2023-05-24T12:05:32;99374.81;;;16.33;50.79
66627;BME280;53498;50.422;14.912;2023-05-24T12:08:02;99378.47;;;16.23;51.24
66627;BME280;53498;50.422;14.912;2023-05-24T12:10:37;99371.41;;;16.26;49.60
66627;BME280;53498;50.422;14.912;2023-05-24T12:13:04;99372.84;;;15.94;49.08
66627;BME280;53498;50.422;14.912;2023-05-24T12:15:30;99374.88;;;15.77;50.21
66627;BME280;53498;50.422;14.912;2023-05-24T12:17:57;99371.69;;;15.55;51.07
66627;BME280;53498;50.422;14.912;2023-05-24T12:20:23;99365.97;;;15.28;52.86
66627;BME280;53498;50.422;14.912;2023-05-24T12:22:53;99364.19;;;15.89;51.83
66627;BME280;53498;50.422;14.912;2023-05-24T12:25:20;99367.84;;;16.29;50.70
66627;BME280;53498;50.422;14.912;2023-05-24T12:27:52;99365.41;;;16.66;50.69
66627;BME280;53498;50.422;14.912;2023-05-24T12:30:25;99355.84;;;16.62;49.34
66627;BME280;53498;50.422;14.912;2023-05-24T12:32:51;99358.47;;;16.17;49.28
66627;BME280;53498;50.422;14.912;2023-05-24T12:35:20;99370.03;;;16.05;50.09
66627;BME280;53498;50.422;14.912;2023-05-24T12:37:47;99354.72;;;16.29;49.89
66627;BME280;53498;50.422;14.912;2023-05-24T12:40:22;99360.13;;;16.21;49.14
66627;BME280;53498;50.422;14.912;2023-05-24T12:42:55;99362.03;;;15.59;51.01
66627;BME280;53498;50.422;14.912;2023-05-24T12:45:26;99359.72;;;15.94;52.21
66627;BME280;53498;50.422;14.912;2023-05-24T12:47:57;99360.81;;;16.31;50.04
66627;BME280;53498;50.422;14.912;2023-05-24T12:50:24;99348.72;;;16.67;50.46
66627;BME280;53498;50.422;14.912;2023-05-24T12:52:52;99364.53;;;16.65;48.69
66627;BME280;53498;50.422;14.912;2023-05-24T12:55:24;99361.09;;;16.62;50.07
66627;BME280;53498;50.422;14.912;2023-05-24T12:57:51;99344.69;;;16.51;49.12
66627;BME280;53498;50.422;14.912;2023-05-24T13:00:23;99356.22;;;16.43;50.41
66627;BME280;53498;50.422;14.912;2023-05-24T13:02:52;99366.13;;;16.28;51.63
66627;BME280;53498;50.422;14.912;2023-05-24T13:05:25;99359.16;;;15.76;51.20